Time;durP1;ratioP1;P1;durP2;ratioP2;P2;SDS_P1;SDS_P2;PMS_P1;PMS_P2;Temp;Humidity;BMP_temperature;BMP_pressure;BME280_temperature;BME280_humidity;BME280_pressure;Samples;Min_cycle;Max_cycle;Signal;HPM_P1;HPM_P2
2022/03/17 12:38:12;;;;;;;21.20;11.23;;;;;;;;;;5338185;23;21564;-59
2022/03/17 12:40:45;;;;;;;14.45;9.02;;;;;;;;;;4950109;29;20542;-59
2022/03/17 12:43:13;;;;;;;15.25;8.40;;;;;;;;;;4952476;28;20086;-61
2022/03/17 12:45:39;;;;;;;15.93;9.38;;;;;;;;;;4951828;28;20039;-61
2022/03/17 12:48:09;;;;;;;17.67;11.27;;;;;;;;;;4952769;29;20042;-59
2022/03/17 12:50:35;;;;;;;17.02;10.15;;;;;;;;;;4952553;29;20036;-60
2022/03/17 12:53:01;;;;;;;17.48;10.15;;;;;;;;;;4951773;29;20031;-59
2022/03/17 12:55:29;;;;;;;17.05;10.02;;;;;;;;;;4951165;29;20023;-59
2022/03/17 12:57:58;;;;;;;20.67;10.25;;;;;;;;;;4950868;28;20027;-60
2022/03/17 13:00:25;;;;;;;14.98;9.70;;;;;;;;;;4950642;29;20382;-60
2022/03/17 13:02:55;;;;;;;16.60;9.95;;;;;;;;;;4951357;29;20032;-60
2022/03/17 13:08:07;;;;;;;16.17;10.13;;;;;;;;;;4950464;29;20046;-60
2022/03/17 13:16:10;;;;;;;17.08;10.13;;;;;;;;;;4892788;29;20055;-60
2022/03/17 13:18:43;;;;;;;16.88;9.77;;;;;;;;;;4892067;29;20044;-60
2022/03/17 13:21:12;;;;;;;15.75;9.68;;;;;;;;;;4892179;29;20461;-60
2022/03/17 13:23:38;;;;;;;14.05;9.10;;;;;;;;;;4892590;29;20115;-60
2022/03/17 13:26:04;;;;;;;16.67;9.82;;;;;;;;;;4893071;29;20071;-59
2022/03/17 13:28:30;;;;;;;17.00;9.73;;;;;;;;;;4891963;29;20088;-60
2022/03/17 13:30:56;;;;;;;15.98;10.07;;;;;;;;;;4890305;29;20432;-61
2022/03/17 13:33:26;;;;;;;15.02;10.15;;;;;;;;;;4890837;29;20067;-59
2022/03/17 13:35:53;;;;;;;17.20;10.30;;;;;;;;;;4891088;29;20049;-60
2022/03/17 13:38:21;;;;;;;15.50;9.35;;;;;;;;;;4890703;29;20077;-60
2022/03/17 13:40:55;;;;;;;14.60;8.95;;;;;;;;;;4877423;29;20052;-60
2022/03/17 13:43:34;;;;;;;14.65;9.50;;;;;;;;;;4886558;29;20044;-60
2022/03/17 13:46:01;;;;;;;12.82;8.10;;;;;;;;;;4895766;29;20187;-60
2022/03/17 13:48:28;;;;;;;14.52;9.18;;;;;;;;;;4892609;29;20028;-58
2022/03/17 13:51:01;;;;;;;16.50;8.90;;;;;;;;;;4925162;29;20061;-60
2022/03/17 13:53:39;;;;;;;19.33;9.45;;;;;;;;;;4936622;29;20103;-60
2022/03/17 13:56:09;;;;;;;15.38;8.27;;;;;;;;;;4936997;29;20031;-59
2022/03/17 13:58:36;;;;;;;14.25;9.18;;;;;;;;;;4949247;29;20042;-60
2022/03/17 14:01:17;;;;;;;14.95;9.25;;;;;;;;;;4955620;28;20498;-59
2022/03/17 14:03:47;;;;;;;15.65;8.85;;;;;;;;;;4955322;29;20086;-59
2022/03/17 14:06:14;;;;;;;17.05;9.05;;;;;;;;;;4955038;29;20031;-59
2022/03/17 14:08:48;;;;;;;12.77;8.02;;;;;;;;;;4955339;28;20039;-60
2022/03/17 14:11:18;;;;;;;15.00;8.65;;;;;;;;;;4955279;29;20027;-59
2022/03/17 14:13:48;;;;;;;14.65;8.90;;;;;;;;;;4954946;28;20043;-60
2022/03/17 14:16:15;;;;;;;16.13;9.98;;;;;;;;;;4955102;28;20043;-60
2022/03/17 14:18:42;;;;;;;14.02;9.18;;;;;;;;;;4955091;28;20062;-60
2022/03/17 14:21:09;;;;;;;18.13;10.73;;;;;;;;;;4955287;29;20154;-59
2022/03/17 14:26:20;;;;;;;15.40;9.55;;;;;;;;;;4955124;29;20130;-59
2022/03/17 14:28:46;;;;;;;17.10;10.13;;;;;;;;;;4954894;29;20102;-58
2022/03/17 14:31:17;;;;;;;20.13;10.57;;;;;;;;;;4954749;29;20035;-58
2022/03/17 14:33:43;;;;;;;20.00;10.73;;;;;;;;;;4953543;29;20078;-59
2022/03/17 14:36:13;;;;;;;20.77;11.30;;;;;;;;;;4954464;29;20042;-59
2022/03/17 14:38:40;;;;;;;15.20;9.57;;;;;;;;;;4954195;28;20058;-59
2022/03/17 14:41:06;;;;;;;16.17;9.68;;;;;;;;;;4954528;29;20114;-58
2022/03/17 14:43:33;;;;;;;16.02;9.93;;;;;;;;;;4954765;29;20019;-59
2022/03/17 14:45:59;;;;;;;19.27;10.30;;;;;;;;;;4954785;29;20027;-58
2022/03/17 14:48:25;;;;;;;22.02;10.80;;;;;;;;;;4953457;28;20031;-59
2022/03/17 14:50:54;;;;;;;20.08;10.80;;;;;;;;;;4954685;29;20035;-59
2022/03/17 14:53:20;;;;;;;19.25;10.80;;;;;;;;;;4954243;29;20114;-59
2022/03/17 14:55:46;;;;;;;18.63;10.70;;;;;;;;;;4954559;29;20062;-59
2022/03/17 14:58:12;;;;;;;20.88;11.07;;;;;;;;;;4954540;29;20039;-59
2022/03/17 15:00:39;;;;;;;23.10;11.90;;;;;;;;;;4954289;29;20030;-60
2022/03/17 15:03:06;;;;;;;20.58;10.75;;;;;;;;;;4954219;28;20031;-60
2022/03/17 15:05:32;;;;;;;21.98;11.30;;;;;;;;;;4954412;29;20043;-59
2022/03/17 15:07:58;;;;;;;19.48;11.05;;;;;;;;;;4953976;29;20043;-60
2022/03/17 15:10:24;;;;;;;22.15;11.18;;;;;;;;;;4953486;29;20074;-59
2022/03/17 15:12:50;;;;;;;20.70;11.20;;;;;;;;;;4953947;29;20042;-60
2022/03/17 15:15:16;;;;;;;19.13;10.32;;;;;;;;;;4953967;29;20035;-58
2022/03/17 15:17:45;;;;;;;22.95;12.05;;;;;;;;;;4954066;29;20047;-59
2022/03/17 15:20:12;;;;;;;25.58;12.70;;;;;;;;;;4953931;28;20027;-58
2022/03/17 15:22:39;;;;;;;23.60;12.05;;;;;;;;;;4953976;29;20038;-57
2022/03/17 15:25:05;;;;;;;23.25;12.55;;;;;;;;;;4953915;28;20019;-61
2022/03/17 15:30:15;;;;;;;23.20;11.95;;;;;;;;;;4953826;29;20046;-59
2022/03/17 15:32:42;;;;;;;24.02;11.95;;;;;;;;;;4953483;29;20027;-59
2022/03/17 15:35:10;;;;;;;23.13;12.35;;;;;;;;;;4954097;28;20425;-61
2022/03/17 15:37:37;;;;;;;23.00;12.57;;;;;;;;;;4953367;28;20043;-61
2022/03/17 15:40:03;;;;;;;24.98;12.77;;;;;;;;;;4953076;28;20055;-60
2022/03/17 15:42:30;;;;;;;25.38;13.57;;;;;;;;;;4953533;29;20121;-60
2022/03/17 15:44:56;;;;;;;22.15;13.05;;;;;;;;;;4953340;28;20019;-59
2022/03/17 15:47:22;;;;;;;25.75;13.50;;;;;;;;;;4953791;29;20027;-61
2022/03/17 15:49:48;;;;;;;24.23;12.82;;;;;;;;;;4953854;29;20498;-59
2022/03/17 15:52:15;;;;;;;19.95;10.98;;;;;;;;;;4953644;29;20035;-61
2022/03/17 15:54:41;;;;;;;21.25;11.23;;;;;;;;;;4953585;29;20035;-56
2022/03/17 15:57:07;;;;;;;22.05;10.45;;;;;;;;;;4953762;29;20039;-58
2022/03/17 15:59:33;;;;;;;19.83;10.85;;;;;;;;;;4953140;28;20106;-58
2022/03/17 16:01:59;;;;;;;24.27;12.25;;;;;;;;;;4953653;28;20090;-60
2022/03/17 16:04:25;;;;;;;25.80;12.77;;;;;;;;;;4953647;29;20031;-59
2022/03/17 16:06:51;;;;;;;25.77;13.30;;;;;;;;;;4953369;29;20070;-60
2022/03/17 16:14:28;;;;;;;24.45;11.65;;;;;;;;;;4953296;29;20114;-60
2022/03/17 16:14:48;;;;;;;27.63;12.52;;;;;;;;;;4953329;29;20459;-59
2022/03/17 16:17:15;;;;;;;25.10;12.40;;;;;;;;;;4953011;29;20562;-60
2022/03/17 16:19:43;;;;;;;30.85;13.85;;;;;;;;;;4953260;28;20082;-59
2022/03/17 16:22:09;;;;;;;26.60;13.27;;;;;;;;;;4953019;28;20042;-59
2022/03/17 16:24:35;;;;;;;26.73;13.85;;;;;;;;;;4953083;29;20031;-59
2022/03/17 16:27:01;;;;;;;21.67;11.40;;;;;;;;;;4953140;29;20504;-61
2022/03/17 16:29:27;;;;;;;24.38;12.30;;;;;;;;;;4952618;29;20038;-57
2022/03/17 16:31:56;;;;;;;25.02;12.45;;;;;;;;;;4952901;29;20082;-58
2022/03/17 16:34:23;;;;;;;24.05;12.18;;;;;;;;;;4953028;28;20031;-58
2022/03/17 16:36:49;;;;;;;25.90;12.30;;;;;;;;;;4950458;29;20482;-59
2022/03/17 16:39:16;;;;;;;20.10;11.35;;;;;;;;;;4952384;28;20047;-59
2022/03/17 16:41:43;;;;;;;25.50;13.50;;;;;;;;;;4952322;28;20023;-58
2022/03/17 16:44:09;;;;;;;29.83;13.02;;;;;;;;;;4952498;28;20031;-58
2022/03/17 16:46:35;;;;;;;26.75;14.35;;;;;;;;;;4952634;29;20035;-58
2022/03/17 16:49:02;;;;;;;23.17;12.00;;;;;;;;;;4952678;29;20034;-59
2022/03/17 16:51:28;;;;;;;24.13;12.27;;;;;;;;;;4952040;29;20050;-58
2022/03/17 16:53:55;;;;;;;27.40;13.63;;;;;;;;;;4952599;29;20028;-58
2022/03/17 16:56:23;;;;;;;37.35;18.08;;;;;;;;;;4952477;29;20039;-58
2022/03/17 16:58:50;;;;;;;29.45;14.75;;;;;;;;;;4948675;28;20027;-59
2022/03/17 17:01:16;;;;;;;24.23;11.93;;;;;;;;;;4932917;29;20024;-59
2022/03/17 17:03:45;;;;;;;24.38;12.50;;;;;;;;;;4941419;29;20036;-58
2022/03/17 17:06:12;;;;;;;34.13;15.30;;;;;;;;;;4940970;28;20027;-59
2022/03/17 17:08:39;;;;;;;31.08;15.98;;;;;;;;;;4943053;29;20086;-58
2022/03/17 17:11:05;;;;;;;28.58;14.13;;;;;;;;;;4942079;28;20031;-58
2022/03/17 17:13:32;;;;;;;29.55;15.02;;;;;;;;;;4945591;29;20038;-59
2022/03/17 17:15:58;;;;;;;28.23;12.93;;;;;;;;;;4942851;29;20040;-61
2022/03/17 17:18:24;;;;;;;27.75;13.93;;;;;;;;;;4946169;29;20360;-60
2022/03/17 17:20:51;;;;;;;29.85;14.02;;;;;;;;;;4948862;29;20027;-60
2022/03/17 17:31:40;;;;;;;32.38;15.20;;;;;;;;;;4947660;29;20042;-61
2022/03/17 17:34:08;;;;;;;27.42;14.52;;;;;;;;;;4941068;29;20038;-62
2022/03/17 17:36:34;;;;;;;30.63;14.85;;;;;;;;;;4945715;28;20041;-61
2022/03/17 17:39:01;;;;;;;32.38;15.48;;;;;;;;;;4940257;29;20102;-60
2022/03/17 17:41:27;;;;;;;31.67;15.10;;;;;;;;;;4935670;29;20028;-61
2022/03/17 17:43:53;;;;;;;34.83;17.02;;;;;;;;;;4936074;29;20023;-60
2022/03/17 17:46:21;;;;;;;36.05;16.77;;;;;;;;;;4940384;28;20384;-60
2022/03/17 17:48:47;;;;;;;34.58;16.27;;;;;;;;;;4942584;28;20083;-61
2022/03/17 17:51:14;;;;;;;33.70;16.52;;;;;;;;;;4938720;29;20390;-59
2022/03/17 17:53:40;;;;;;;34.65;17.02;;;;;;;;;;4935787;28;20054;-59
2022/03/17 17:56:07;;;;;;;31.33;15.93;;;;;;;;;;4936218;29;20095;-59
2022/03/17 17:58:34;;;;;;;34.00;15.98;;;;;;;;;;4940340;29;20092;-57
2022/03/17 18:01:00;;;;;;;26.85;15.63;;;;;;;;;;4945950;29;20032;-61
2022/03/17 18:03:29;;;;;;;27.98;15.32;;;;;;;;;;4940339;29;20087;-60
2022/03/17 18:05:56;;;;;;;30.55;15.65;;;;;;;;;;4951258;29;20536;-60
2022/03/17 18:08:22;;;;;;;37.30;17.38;;;;;;;;;;4936225;29;20035;-60
2022/03/17 18:10:48;;;;;;;44.45;19.92;;;;;;;;;;4940317;29;20499;-58
2022/03/17 18:13:16;;;;;;;36.22;17.48;;;;;;;;;;4945712;29;20937;-59
2022/03/17 18:15:42;;;;;;;43.30;20.70;;;;;;;;;;4945213;28;20034;-59
2022/03/17 18:18:08;;;;;;;43.63;20.40;;;;;;;;;;4944436;29;20023;-59
2022/03/17 18:20:35;;;;;;;38.92;19.75;;;;;;;;;;4945089;29;20023;-59
2022/03/17 18:23:05;;;;;;;35.58;18.05;;;;;;;;;;4943016;29;20151;-58
2022/03/17 18:25:32;;;;;;;36.97;18.75;;;;;;;;;;4937203;29;20461;-60
2022/03/17 18:27:58;;;;;;;36.72;19.40;;;;;;;;;;4936071;29;20164;-59
2022/03/17 18:30:25;;;;;;;37.30;18.88;;;;;;;;;;4947138;29;20028;-59
2022/03/17 18:32:51;;;;;;;39.85;20.17;;;;;;;;;;4955130;29;20023;-62
2022/03/17 18:35:18;;;;;;;41.08;19.88;;;;;;;;;;4955348;29;20038;-60
2022/03/17 18:37:44;;;;;;;39.05;18.75;;;;;;;;;;4954603;29;20038;-59
2022/03/17 18:40:12;;;;;;;43.42;19.73;;;;;;;;;;4948339;28;20055;-60
2022/03/17 18:42:41;;;;;;;42.92;20.15;;;;;;;;;;4945650;29;20118;-60
2022/03/17 18:45:08;;;;;;;40.97;20.63;;;;;;;;;;4945979;29;20098;-59
2022/03/17 18:47:34;;;;;;;37.33;20.10;;;;;;;;;;4944239;29;20023;-59
2022/03/17 18:50:01;;;;;;;43.42;21.63;;;;;;;;;;4942824;28;20031;-60
2022/03/17 18:52:27;;;;;;;44.83;21.42;;;;;;;;;;4944172;29;20051;-59
2022/03/17 18:54:55;;;;;;;44.13;22.05;;;;;;;;;;4942877;29;20028;-60
2022/03/17 18:57:21;;;;;;;45.65;22.63;;;;;;;;;;4947203;28;20053;-60
2022/03/17 18:59:47;;;;;;;44.88;21.85;;;;;;;;;;4936547;29;20107;-60
2022/03/17 19:02:13;;;;;;;38.80;19.25;;;;;;;;;;4937516;29;20042;-59
2022/03/17 19:04:39;;;;;;;39.50;19.63;;;;;;;;;;4945244;29;20027;-60
2022/03/17 19:07:05;;;;;;;39.38;19.25;;;;;;;;;;4941440;28;20027;-60
2022/03/17 19:09:31;;;;;;;38.95;19.80;;;;;;;;;;4944292;28;20035;-60
2022/03/17 19:11:57;;;;;;;40.83;19.52;;;;;;;;;;4940202;29;20059;-59
2022/03/17 19:14:25;;;;;;;40.17;20.27;;;;;;;;;;4937516;29;20027;-59
2022/03/17 19:16:51;;;;;;;36.10;20.08;;;;;;;;;;4939432;29;20062;-60
2022/03/17 19:19:18;;;;;;;38.85;19.38;;;;;;;;;;4945558;29;20488;-60
2022/03/17 19:21:46;;;;;;;37.67;18.25;;;;;;;;;;4944721;29;20037;-59
2022/03/17 19:24:12;;;;;;;38.30;18.23;;;;;;;;;;4943751;28;20047;-60
2022/03/17 19:26:39;;;;;;;36.85;17.77;;;;;;;;;;4938715;29;20032;-59
2022/03/17 19:29:05;;;;;;;40.03;19.73;;;;;;;;;;4945523;29;20106;-59
2022/03/17 19:31:31;;;;;;;38.63;18.50;;;;;;;;;;4946975;29;20035;-59
2022/03/17 19:33:58;;;;;;;36.88;17.75;;;;;;;;;;4941570;28;20111;-59
2022/03/17 19:36:24;;;;;;;38.33;17.90;;;;;;;;;;4943116;29;20035;-60
2022/03/17 19:38:50;;;;;;;34.75;17.48;;;;;;;;;;4942375;28;20063;-59
2022/03/17 19:41:19;;;;;;;33.28;16.88;;;;;;;;;;4944375;29;20398;-60
2022/03/17 19:43:46;;;;;;;32.13;17.42;;;;;;;;;;4953182;28;20106;-60
2022/03/17 19:46:15;;;;;;;32.47;16.35;;;;;;;;;;4953674;28;20364;-60
2022/03/17 19:48:41;;;;;;;30.88;16.85;;;;;;;;;;4953423;28;20019;-60
2022/03/17 19:51:07;;;;;;;34.72;16.83;;;;;;;;;;4946290;28;20023;-59
2022/03/17 19:53:35;;;;;;;33.40;17.00;;;;;;;;;;4934411;29;20039;-60
2022/03/17 19:56:09;;;;;;;30.30;15.15;;;;;;;;;;4941583;29;20399;-60
2022/03/17 19:58:36;;;;;;;31.33;16.80;;;;;;;;;;4934316;29;20036;-59
2022/03/17 20:01:04;;;;;;;29.00;16.17;;;;;;;;;;4945932;29;20113;-59
2022/03/17 20:03:30;;;;;;;32.53;16.52;;;;;;;;;;4952970;28;20502;-60
2022/03/17 20:05:56;;;;;;;29.85;16.40;;;;;;;;;;4953268;29;20056;-60
2022/03/17 20:08:22;;;;;;;33.42;16.92;;;;;;;;;;4943066;28;20023;-61
2022/03/17 20:13:42;;;;;;;33.25;17.02;;;;;;;;;;4953302;29;20391;-60
2022/03/17 20:16:09;;;;;;;33.90;17.20;;;;;;;;;;4953217;28;20034;-60
2022/03/17 20:18:35;;;;;;;32.38;17.35;;;;;;;;;;4952923;28;20491;-60
2022/03/17 20:21:01;;;;;;;32.90;16.45;;;;;;;;;;4934080;29;20436;-60
2022/03/17 20:23:28;;;;;;;35.22;17.85;;;;;;;;;;4933842;28;20036;-60
2022/03/17 20:25:54;;;;;;;30.92;15.77;;;;;;;;;;4934065;29;20509;-60
2022/03/17 20:28:20;;;;;;;30.50;16.13;;;;;;;;;;4933761;29;20043;-61
2022/03/17 20:30:46;;;;;;;31.73;17.25;;;;;;;;;;4933746;29;20028;-61
2022/03/17 20:33:12;;;;;;;31.75;16.45;;;;;;;;;;4933886;29;20059;-60
2022/03/17 20:35:39;;;;;;;33.92;16.67;;;;;;;;;;4933848;29;20090;-60
2022/03/17 20:38:05;;;;;;;33.05;17.23;;;;;;;;;;4934019;28;20035;-59
2022/03/17 20:40:31;;;;;;;35.00;17.60;;;;;;;;;;4952386;29;20039;-60
2022/03/17 20:42:58;;;;;;;33.25;17.17;;;;;;;;;;4940890;29;20038;-60
2022/03/17 20:45:24;;;;;;;34.60;18.17;;;;;;;;;;4933267;29;20032;-60
2022/03/17 20:47:50;;;;;;;33.97;17.17;;;;;;;;;;4932809;29;20384;-60
2022/03/17 20:50:16;;;;;;;30.67;16.60;;;;;;;;;;4933543;29;20373;-60
2022/03/17 20:52:43;;;;;;;35.25;17.35;;;;;;;;;;4933425;29;20028;-60
2022/03/17 20:55:09;;;;;;;29.70;15.55;;;;;;;;;;4933445;29;20024;-60
2022/03/17 20:57:37;;;;;;;33.55;16.40;;;;;;;;;;4935379;29;20036;-60
2022/03/17 21:00:05;;;;;;;31.35;17.00;;;;;;;;;;4932847;29;20103;-60
2022/03/17 21:02:31;;;;;;;32.13;17.00;;;;;;;;;;4946526;28;20065;-60
2022/03/17 21:04:58;;;;;;;32.20;16.75;;;;;;;;;;4952376;29;20035;-60
2022/03/17 21:13:34;;;;;;;31.92;16.48;;;;;;;;;;4952593;29;20090;-59
2022/03/17 21:16:00;;;;;;;31.42;15.75;;;;;;;;;;4951989;28;20070;-60
2022/03/17 21:18:27;;;;;;;31.58;16.17;;;;;;;;;;4952502;29;20031;-60
2022/03/17 21:20:56;;;;;;;30.65;15.48;;;;;;;;;;4952624;29;20051;-60
2022/03/17 21:23:22;;;;;;;31.83;16.60;;;;;;;;;;4952131;28;20039;-60
2022/03/17 21:25:48;;;;;;;33.20;16.67;;;;;;;;;;4952328;29;20032;-60
2022/03/17 21:28:15;;;;;;;32.03;16.85;;;;;;;;;;4952381;28;20035;-60
2022/03/17 21:30:41;;;;;;;33.33;15.90;;;;;;;;;;4952340;29;20059;-59
2022/03/17 21:33:07;;;;;;;35.80;16.45;;;;;;;;;;4952024;28;20053;-60
2022/03/17 21:35:33;;;;;;;28.05;15.77;;;;;;;;;;4952443;29;20027;-60
2022/03/17 21:38:00;;;;;;;32.67;16.90;;;;;;;;;;4952250;29;20095;-60
2022/03/17 21:40:27;;;;;;;30.67;16.40;;;;;;;;;;4952086;28;20048;-61
2022/03/17 21:42:53;;;;;;;32.10;16.42;;;;;;;;;;4952106;28;20387;-60
2022/03/17 21:45:20;;;;;;;38.22;17.75;;;;;;;;;;4944029;29;20032;-60
2022/03/17 21:47:46;;;;;;;30.48;15.85;;;;;;;;;;4945135;29;20023;-61
2022/03/17 21:50:12;;;;;;;31.50;16.80;;;;;;;;;;4952401;29;20065;-60
2022/03/17 21:52:38;;;;;;;35.25;16.88;;;;;;;;;;4952360;29;20114;-59
2022/03/17 21:55:05;;;;;;;34.38;17.30;;;;;;;;;;4952169;29;20024;-60
2022/03/17 21:57:31;;;;;;;35.58;16.73;;;;;;;;;;4952466;28;20043;-60
2022/03/17 21:59:58;;;;;;;36.05;17.95;;;;;;;;;;4955890;28;20026;-59
2022/03/17 22:02:24;;;;;;;34.40;16.38;;;;;;;;;;4955328;28;20035;-60
2022/03/17 22:04:50;;;;;;;35.47;18.30;;;;;;;;;;4955373;28;20109;-59
2022/03/17 22:07:16;;;;;;;32.60;17.50;;;;;;;;;;4955198;29;20082;-59
2022/03/17 22:09:47;;;;;;;35.30;17.52;;;;;;;;;;4954694;29;20035;-60
2022/03/17 22:12:14;;;;;;;35.90;17.77;;;;;;;;;;4954906;28;20098;-60
2022/03/17 22:14:40;;;;;;;35.20;17.90;;;;;;;;;;4943593;28;20901;-59
2022/03/17 22:17:06;;;;;;;34.10;17.90;;;;;;;;;;4940396;29;20055;-60
2022/03/17 22:19:32;;;;;;;39.03;18.30;;;;;;;;;;4942075;29;20027;-59
2022/03/17 22:21:58;;;;;;;35.42;18.85;;;;;;;;;;4942271;29;20051;-59
2022/03/17 22:24:24;;;;;;;36.05;19.05;;;;;;;;;;4947703;28;20035;-59
2022/03/17 22:26:50;;;;;;;39.80;18.08;;;;;;;;;;4943319;29;20484;-59
2022/03/17 22:29:16;;;;;;;42.03;18.58;;;;;;;;;;4941866;29;20498;-59
2022/03/17 22:31:42;;;;;;;31.75;17.02;;;;;;;;;;4943616;28;20040;-59
2022/03/17 22:34:08;;;;;;;38.25;19.33;;;;;;;;;;4944779;29;20028;-59
2022/03/17 22:36:36;;;;;;;38.90;18.05;;;;;;;;;;4941820;29;20714;-59
2022/03/17 22:39:02;;;;;;;34.25;17.17;;;;;;;;;;4940183;29;20603;-59
2022/03/17 22:41:31;;;;;;;36.85;18.10;;;;;;;;;;4942977;29;20135;-59
2022/03/17 22:44:01;;;;;;;40.40;17.67;;;;;;;;;;4942219;28;20365;-59
2022/03/17 22:46:27;;;;;;;31.13;17.35;;;;;;;;;;4942985;29;20027;-58
2022/03/17 22:48:53;;;;;;;34.55;17.15;;;;;;;;;;4939987;29;20098;-60
2022/03/17 22:51:20;;;;;;;36.55;17.13;;;;;;;;;;4945028;29;20270;-60
2022/03/17 22:53:46;;;;;;;35.88;18.13;;;;;;;;;;4947034;29;20027;-60
2022/03/17 22:56:12;;;;;;;39.72;18.77;;;;;;;;;;4939393;29;20369;-59
2022/03/17 22:58:38;;;;;;;41.50;18.92;;;;;;;;;;4950786;29;20035;-60
2022/03/17 23:01:05;;;;;;;38.55;19.45;;;;;;;;;;4940915;29;20023;-60
2022/03/17 23:03:31;;;;;;;38.53;19.52;;;;;;;;;;4944775;28;20028;-60
2022/03/17 23:05:58;;;;;;;36.42;18.25;;;;;;;;;;4948033;29;20120;-59
2022/03/17 23:08:25;;;;;;;39.33;19.60;;;;;;;;;;4955841;28;20085;-59
2022/03/17 23:10:51;;;;;;;38.38;18.40;;;;;;;;;;4941388;29;20111;-58
2022/03/17 23:13:17;;;;;;;35.55;18.58;;;;;;;;;;4943549;29;20036;-57
2022/03/17 23:15:46;;;;;;;36.97;19.38;;;;;;;;;;4942677;29;20031;-59
2022/03/17 23:18:12;;;;;;;41.72;20.20;;;;;;;;;;4942906;29;20063;-60
2022/03/17 23:20:39;;;;;;;36.22;19.17;;;;;;;;;;4943298;29;20038;-60
2022/03/17 23:23:08;;;;;;;38.88;20.50;;;;;;;;;;4944239;29;20034;-60
